sensor_id;sensor_type;location;lat;lon;timestamp;P1;durP1;ratioP1;P2;durP2;ratioP2
31298;SDS011;17927;52.350;13.402;2022-11-15T00:01:40;37.85;;;24.73;;
31298;SDS011;17927;52.350;13.402;2022-11-15T00:04:05;35.35;;;24.65;;
31298;SDS011;17927;52.350;13.402;2022-11-15T00:06:31;38.45;;;25.17;;
31298;SDS011;17927;52.350;13.402;2022-11-15T00:09:00;32.40;;;22.50;;
31298;SDS011;17927;52.350;13.402;2022-11-15T00:11:25;39.20;;;26.63;;
31298;SDS011;17927;52.350;13.402;2022-11-15T00:13:51;34.17;;;24.25;;
31298;SDS011;17927;52.350;13.402;2022-11-15T00:16:19;36.00;;;25.20;;
31298;SDS011;17927;52.350;13.402;2022-11-15T00:18:45;36.10;;;24.50;;
31298;SDS011;17927;52.350;13.402;2022-11-15T00:21:11;34.63;;;24.00;;
31298;SDS011;17927;52.350;13.402;2022-11-15T00:23:37;34.65;;;24.45;;
31298;SDS011;17927;52.350;13.402;2022-11-15T00:26:02;34.17;;;24.13;;
31298;SDS011;17927;52.350;13.402;2022-11-15T00:28:28;32.20;;;22.88;;
31298;SDS011;17927;52.350;13.402;2022-11-15T00:30:53;36.78;;;24.85;;
31298;SDS011;17927;52.350;13.402;2022-11-15T00:33:18;37.35;;;25.88;;
31298;SDS011;17927;52.350;13.402;2022-11-15T00:35:44;37.75;;;24.77;;
31298;SDS011;17927;52.350;13.402;2022-11-15T00:38:09;38.78;;;25.67;;
31298;SDS011;17927;52.350;13.402;2022-11-15T00:40:34;38.53;;;24.83;;
31298;SDS011;17927;52.350;13.402;2022-11-15T00:42:59;35.83;;;24.83;;
31298;SDS011;17927;52.350;13.402;2022-11-15T00:45:25;36.20;;;24.75;;
31298;SDS011;17927;52.350;13.402;2022-11-15T00:47:50;35.13;;;24.15;;
31298;SDS011;17927;52.350;13.402;2022-11-15T00:50:16;36.25;;;25.02;;
31298;SDS011;17927;52.350;13.402;2022-11-15T00:52:42;35.35;;;24.52;;
31298;SDS011;17927;52.350;13.402;2022-11-15T00:55:09;36.00;;;24.63;;
31298;SDS011;17927;52.350;13.402;2022-11-15T00:57:39;32.55;;;24.15;;
31298;SDS011;17927;52.350;13.402;2022-11-15T01:00:05;36.63;;;24.35;;
31298;SDS011;17927;52.350;13.402;2022-11-15T01:02:30;35.92;;;24.83;;
31298;SDS011;17927;52.350;13.402;2022-11-15T01:04:56;34.85;;;24.33;;
31298;SDS011;17927;52.350;13.402;2022-11-15T01:07:21;35.60;;;23.60;;
31298;SDS011;17927;52.350;13.402;2022-11-15T01:09:46;40.08;;;25.63;;
31298;SDS011;17927;52.350;13.402;2022-11-15T01:12:11;35.25;;;24.58;;
31298;SDS011;17927;52.350;13.402;2022-11-15T01:14:37;37.33;;;25.17;;
31298;SDS011;17927;52.350;13.402;2022-11-15T01:17:02;37.63;;;25.23;;
31298;SDS011;17927;52.350;13.402;2022-11-15T01:19:27;35.30;;;24.60;;
31298;SDS011;17927;52.350;13.402;2022-11-15T01:21:52;36.55;;;25.08;;
31298;SDS011;17927;52.350;13.402;2022-11-15T01:24:18;35.00;;;22.95;;
31298;SDS011;17927;52.350;13.402;2022-11-15T01:26:43;36.67;;;25.45;;
31298;SDS011;17927;52.350;13.402;2022-11-15T01:29:08;35.05;;;24.75;;
31298;SDS011;17927;52.350;13.402;2022-11-15T01:31:34;36.60;;;24.63;;
31298;SDS011;17927;52.350;13.402;2022-11-15T01:34:00;38.67;;;24.73;;
31298;SDS011;17927;52.350;13.402;2022-11-15T01:36:25;40.00;;;24.67;;
31298;SDS011;17927;52.350;13.402;2022-11-15T01:38:53;36.83;;;25.35;;
31298;SDS011;17927;52.350;13.402;2022-11-15T01:41:21;37.20;;;23.55;;
31298;SDS011;17927;52.350;13.402;2022-11-15T01:43:51;34.67;;;23.77;;
31298;SDS011;17927;52.350;13.402;2022-11-15T01:46:25;35.40;;;24.05;;
31298;SDS011;17927;52.350;13.402;2022-11-15T01:49:04;37.90;;;25.42;;
31298;SDS011;17927;52.350;13.402;2022-11-15T01:51:36;38.08;;;25.35;;
31298;SDS011;17927;52.350;13.402;2022-11-15T01:54:02;33.83;;;24.73;;
31298;SDS011;17927;52.350;13.402;2022-11-15T01:56:32;34.90;;;24.80;;
31298;SDS011;17927;52.350;13.402;2022-11-15T01:59:02;33.05;;;24.65;;
31298;SDS011;17927;52.350;13.402;2022-11-15T02:01:29;36.38;;;23.65;;
31298;SDS011;17927;52.350;13.402;2022-11-15T02:03:59;35.60;;;24.77;;
31298;SDS011;17927;52.350;13.402;2022-11-15T02:06:28;35.17;;;24.60;;
31298;SDS011;17927;52.350;13.402;2022-11-15T02:08:54;36.88;;;25.08;;
31298;SDS011;17927;52.350;13.402;2022-11-15T02:11:21;35.42;;;23.90;;
31298;SDS011;17927;52.350;13.402;2022-11-15T02:13:46;34.25;;;23.52;;
31298;SDS011;17927;52.350;13.402;2022-11-15T02:16:27;39.15;;;26.08;;
31298;SDS011;17927;52.350;13.402;2022-11-15T02:18:59;36.13;;;24.20;;
31298;SDS011;17927;52.350;13.402;2022-11-15T02:21:41;35.05;;;24.38;;
31298;SDS011;17927;52.350;13.402;2022-11-15T02:27:20;34.63;;;25.02;;
31298;SDS011;17927;52.350;13.402;2022-11-15T02:32:43;32.38;;;23.33;;
31298;SDS011;17927;52.350;13.402;2022-11-15T02:35:17;31.70;;;23.30;;
31298;SDS011;17927;52.350;13.402;2022-11-15T02:37:57;33.78;;;23.17;;
31298;SDS011;17927;52.350;13.402;2022-11-15T02:43:08;32.20;;;21.92;;
31298;SDS011;17927;52.350;13.402;2022-11-15T02:46:00;33.92;;;23.20;;
31298;SDS011;17927;52.350;13.402;2022-11-15T02:48:34;32.75;;;21.63;;
31298;SDS011;17927;52.350;13.402;2022-11-15T02:51:00;31.63;;;22.17;;
31298;SDS011;17927;52.350;13.402;2022-11-15T02:53:26;33.58;;;22.83;;
31298;SDS011;17927;52.350;13.402;2022-11-15T02:55:52;31.92;;;21.70;;
31298;SDS011;17927;52.350;13.402;2022-11-15T02:58:24;34.20;;;23.13;;
31298;SDS011;17927;52.350;13.402;2022-11-15T03:00:59;33.83;;;22.95;;
31298;SDS011;17927;52.350;13.402;2022-11-15T03:03:38;31.63;;;22.35;;
31298;SDS011;17927;52.350;13.402;2022-11-15T03:09:04;29.38;;;21.05;;
31298;SDS011;17927;52.350;13.402;2022-11-15T03:11:49;31.35;;;21.45;;
31298;SDS011;17927;52.350;13.402;2022-11-15T03:19:44;31.02;;;22.20;;
31298;SDS011;17927;52.350;13.402;2022-11-15T03:22:14;31.45;;;21.98;;
31298;SDS011;17927;52.350;13.402;2022-11-15T03:24:44;31.35;;;22.05;;
31298;SDS011;17927;52.350;13.402;2022-11-15T03:27:12;33.17;;;22.05;;
31298;SDS011;17927;52.350;13.402;2022-11-15T03:29:44;31.40;;;22.17;;
31298;SDS011;17927;52.350;13.402;2022-11-15T03:32:14;51.65;;;33.10;;
31298;SDS011;17927;52.350;13.402;2022-11-15T03:34:45;42.70;;;29.17;;
31298;SDS011;17927;52.350;13.402;2022-11-15T03:37:15;42.40;;;28.20;;
31298;SDS011;17927;52.350;13.402;2022-11-15T03:39:42;38.70;;;26.08;;
31298;SDS011;17927;52.350;13.402;2022-11-15T03:42:18;44.53;;;30.10;;
31298;SDS011;17927;52.350;13.402;2022-11-15T03:45:36;37.83;;;24.85;;
31298;SDS011;17927;52.350;13.402;2022-11-15T03:50:27;34.33;;;23.08;;
31298;SDS011;17927;52.350;13.402;2022-11-15T03:52:54;33.53;;;22.60;;
31298;SDS011;17927;52.350;13.402;2022-11-15T03:55:20;29.15;;;22.00;;
31298;SDS011;17927;52.350;13.402;2022-11-15T03:57:46;36.65;;;24.00;;
31298;SDS011;17927;52.350;13.402;2022-11-15T04:00:14;37.38;;;23.67;;
31298;SDS011;17927;52.350;13.402;2022-11-15T04:02:39;35.67;;;23.42;;
31298;SDS011;17927;52.350;13.402;2022-11-15T04:05:05;38.05;;;24.92;;
31298;SDS011;17927;52.350;13.402;2022-11-15T04:07:30;32.90;;;23.35;;
31298;SDS011;17927;52.350;13.402;2022-11-15T04:09:55;33.85;;;24.20;;
31298;SDS011;17927;52.350;13.402;2022-11-15T04:14:58;35.65;;;21.75;;
31298;SDS011;17927;52.350;13.402;2022-11-15T04:17:46;35.53;;;24.20;;
31298;SDS011;17927;52.350;13.402;2022-11-15T04:20:18;38.38;;;25.10;;
31298;SDS011;17927;52.350;13.402;2022-11-15T04:23:06;33.67;;;23.42;;
31298;SDS011;17927;52.350;13.402;2022-11-15T04:25:54;34.85;;;23.05;;
31298;SDS011;17927;52.350;13.402;2022-11-15T04:28:20;36.03;;;23.75;;
31298;SDS011;17927;52.350;13.402;2022-11-15T04:30:46;32.95;;;22.58;;
31298;SDS011;17927;52.350;13.402;2022-11-15T04:33:11;34.97;;;22.70;;
31298;SDS011;17927;52.350;13.402;2022-11-15T04:35:36;38.08;;;25.45;;
31298;SDS011;17927;52.350;13.402;2022-11-15T04:38:02;36.10;;;24.95;;
31298;SDS011;17927;52.350;13.402;2022-11-15T04:40:29;34.33;;;22.77;;
31298;SDS011;17927;52.350;13.402;2022-11-15T04:42:54;35.67;;;23.85;;
31298;SDS011;17927;52.350;13.402;2022-11-15T04:45:20;38.25;;;25.58;;
31298;SDS011;17927;52.350;13.402;2022-11-15T04:47:45;36.72;;;24.23;;
31298;SDS011;17927;52.350;13.402;2022-11-15T04:50:11;34.75;;;23.48;;
31298;SDS011;17927;52.350;13.402;2022-11-15T04:52:39;33.80;;;23.20;;
31298;SDS011;17927;52.350;13.402;2022-11-15T04:55:08;34.15;;;22.38;;
31298;SDS011;17927;52.350;13.402;2022-11-15T04:57:34;33.22;;;22.55;;
31298;SDS011;17927;52.350;13.402;2022-11-15T05:00:00;36.13;;;23.33;;
31298;SDS011;17927;52.350;13.402;2022-11-15T05:02:25;32.80;;;22.58;;
31298;SDS011;17927;52.350;13.402;2022-11-15T05:05:10;33.40;;;22.10;;
31298;SDS011;17927;52.350;13.402;2022-11-15T05:07:35;31.25;;;20.85;;
31298;SDS011;17927;52.350;13.402;2022-11-15T05:10:00;31.35;;;21.30;;
31298;SDS011;17927;52.350;13.402;2022-11-15T05:12:26;33.13;;;22.58;;
31298;SDS011;17927;52.350;13.402;2022-11-15T05:14:51;33.40;;;22.20;;
31298;SDS011;17927;52.350;13.402;2022-11-15T05:17:16;28.88;;;21.35;;
31298;SDS011;17927;52.350;13.402;2022-11-15T05:19:41;31.73;;;22.52;;
31298;SDS011;17927;52.350;13.402;2022-11-15T05:22:07;33.55;;;22.38;;
31298;SDS011;17927;52.350;13.402;2022-11-15T05:24:32;33.50;;;23.10;;
31298;SDS011;17927;52.350;13.402;2022-11-15T05:26:57;35.38;;;22.80;;
31298;SDS011;17927;52.350;13.402;2022-11-15T05:29:22;33.13;;;22.13;;
31298;SDS011;17927;52.350;13.402;2022-11-15T05:31:48;34.40;;;22.80;;
31298;SDS011;17927;52.350;13.402;2022-11-15T05:34:13;33.38;;;22.60;;
31298;SDS011;17927;52.350;13.402;2022-11-15T05:36:41;34.47;;;23.80;;
31298;SDS011;17927;52.350;13.402;2022-11-15T05:39:07;35.65;;;22.52;;
31298;SDS011;17927;52.350;13.402;2022-11-15T05:41:35;34.40;;;22.90;;
31298;SDS011;17927;52.350;13.402;2022-11-15T05:44:05;35.43;;;23.23;;
31298;SDS011;17927;52.350;13.402;2022-11-15T05:46:33;34.45;;;23.58;;
31298;SDS011;17927;52.350;13.402;2022-11-15T05:49:00;36.95;;;24.02;;
31298;SDS011;17927;52.350;13.402;2022-11-15T05:51:25;37.33;;;24.27;;
31298;SDS011;17927;52.350;13.402;2022-11-15T05:53:53;35.50;;;23.70;;
31298;SDS011;17927;52.350;13.402;2022-11-15T05:56:21;37.95;;;24.20;;
31298;SDS011;17927;52.350;13.402;2022-11-15T05:58:47;36.75;;;23.83;;
31298;SDS011;17927;52.350;13.402;2022-11-15T06:01:12;32.58;;;22.70;;
31298;SDS011;17927;52.350;13.402;2022-11-15T06:03:37;35.72;;;24.13;;
31298;SDS011;17927;52.350;13.402;2022-11-15T06:06:03;36.35;;;23.60;;
31298;SDS011;17927;52.350;13.402;2022-11-15T06:08:28;42.70;;;26.65;;
31298;SDS011;17927;52.350;13.402;2022-11-15T06:10:53;47.50;;;27.58;;
31298;SDS011;17927;52.350;13.402;2022-11-15T06:13:18;39.65;;;26.98;;
31298;SDS011;17927;52.350;13.402;2022-11-15T06:15:44;36.17;;;23.83;;
31298;SDS011;17927;52.350;13.402;2022-11-15T06:18:09;36.80;;;24.88;;
31298;SDS011;17927;52.350;13.402;2022-11-15T06:20:35;39.33;;;24.50;;
31298;SDS011;17927;52.350;13.402;2022-11-15T06:23:00;34.33;;;23.08;;
31298;SDS011;17927;52.350;13.402;2022-11-15T06:25:28;39.30;;;24.60;;
31298;SDS011;17927;52.350;13.402;2022-11-15T06:27:54;40.40;;;24.45;;
31298;SDS011;17927;52.350;13.402;2022-11-15T06:30:20;35.65;;;24.40;;
31298;SDS011;17927;52.350;13.402;2022-11-15T06:32:46;34.67;;;23.35;;
31298;SDS011;17927;52.350;13.402;2022-11-15T06:35:12;34.28;;;23.15;;
31298;SDS011;17927;52.350;13.402;2022-11-15T06:37:38;42.50;;;24.65;;
31298;SDS011;17927;52.350;13.402;2022-11-15T06:40:03;36.78;;;24.02;;
31298;SDS011;17927;52.350;13.402;2022-11-15T06:42:29;38.58;;;25.50;;
31298;SDS011;17927;52.350;13.402;2022-11-15T06:44:54;35.55;;;22.80;;
31298;SDS011;17927;52.350;13.402;2022-11-15T06:47:19;35.10;;;23.45;;
31298;SDS011;17927;52.350;13.402;2022-11-15T06:49:44;41.90;;;24.45;;
31298;SDS011;17927;52.350;13.402;2022-11-15T06:52:10;35.65;;;23.90;;
31298;SDS011;17927;52.350;13.402;2022-11-15T06:54:35;37.40;;;24.17;;
31298;SDS011;17927;52.350;13.402;2022-11-15T06:57:00;36.22;;;24.27;;
31298;SDS011;17927;52.350;13.402;2022-11-15T06:59:25;33.75;;;23.92;;
31298;SDS011;17927;52.350;13.402;2022-11-15T07:01:51;35.85;;;24.52;;
31298;SDS011;17927;52.350;13.402;2022-11-15T07:04:16;34.60;;;23.75;;
31298;SDS011;17927;52.350;13.402;2022-11-15T07:06:41;33.55;;;23.25;;
31298;SDS011;17927;52.350;13.402;2022-11-15T07:09:06;36.42;;;24.60;;
31298;SDS011;17927;52.350;13.402;2022-11-15T07:11:33;36.58;;;24.77;;
31298;SDS011;17927;52.350;13.402;2022-11-15T07:13:59;33.70;;;24.08;;
31298;SDS011;17927;52.350;13.402;2022-11-15T07:16:24;37.85;;;25.65;;
31298;SDS011;17927;52.350;13.402;2022-11-15T07:18:50;37.45;;;26.80;;
31298;SDS011;17927;52.350;13.402;2022-11-15T07:21:15;40.13;;;24.85;;
31298;SDS011;17927;52.350;13.402;2022-11-15T07:23:40;36.13;;;24.27;;
31298;SDS011;17927;52.350;13.402;2022-11-15T07:26:06;33.13;;;23.20;;
31298;SDS011;17927;52.350;13.402;2022-11-15T07:28:32;38.53;;;24.15;;
31298;SDS011;17927;52.350;13.402;2022-11-15T07:30:57;36.00;;;23.33;;
31298;SDS011;17927;52.350;13.402;2022-11-15T07:33:23;37.25;;;26.35;;
31298;SDS011;17927;52.350;13.402;2022-11-15T07:35:48;37.72;;;26.17;;
31298;SDS011;17927;52.350;13.402;2022-11-15T07:38:14;38.20;;;26.35;;
31298;SDS011;17927;52.350;13.402;2022-11-15T07:40:40;38.90;;;26.70;;
31298;SDS011;17927;52.350;13.402;2022-11-15T07:43:06;37.80;;;25.95;;
31298;SDS011;17927;52.350;13.402;2022-11-15T07:45:32;39.70;;;26.08;;
31298;SDS011;17927;52.350;13.402;2022-11-15T07:48:00;36.75;;;24.88;;
31298;SDS011;17927;52.350;13.402;2022-11-15T07:50:26;35.17;;;24.80;;
31298;SDS011;17927;52.350;13.402;2022-11-15T07:52:57;35.30;;;23.42;;
31298;SDS011;17927;52.350;13.402;2022-11-15T07:55:24;30.98;;;23.45;;
31298;SDS011;17927;52.350;13.402;2022-11-15T07:57:51;32.67;;;24.08;;
31298;SDS011;17927;52.350;13.402;2022-11-15T08:00:16;35.42;;;23.60;;
31298;SDS011;17927;52.350;13.402;2022-11-15T08:02:42;34.50;;;24.33;;
31298;SDS011;17927;52.350;13.402;2022-11-15T08:05:07;35.30;;;25.25;;
31298;SDS011;17927;52.350;13.402;2022-11-15T08:07:33;34.65;;;24.38;;
31298;SDS011;17927;52.350;13.402;2022-11-15T08:09:58;33.92;;;24.58;;
31298;SDS011;17927;52.350;13.402;2022-11-15T08:12:23;38.47;;;24.92;;
31298;SDS011;17927;52.350;13.402;2022-11-15T08:14:49;35.53;;;25.27;;
31298;SDS011;17927;52.350;13.402;2022-11-15T08:17:15;35.47;;;25.33;;
31298;SDS011;17927;52.350;13.402;2022-11-15T08:19:40;40.13;;;26.55;;
31298;SDS011;17927;52.350;13.402;2022-11-15T08:22:05;37.75;;;25.02;;
31298;SDS011;17927;52.350;13.402;2022-11-15T08:24:30;38.08;;;25.58;;
31298;SDS011;17927;52.350;13.402;2022-11-15T08:26:56;35.88;;;25.88;;
31298;SDS011;17927;52.350;13.402;2022-11-15T08:29:21;34.22;;;24.73;;
31298;SDS011;17927;52.350;13.402;2022-11-15T08:31:46;38.10;;;25.23;;
31298;SDS011;17927;52.350;13.402;2022-11-15T08:34:11;36.55;;;23.45;;
31298;SDS011;17927;52.350;13.402;2022-11-15T08:36:37;37.78;;;25.48;;
31298;SDS011;17927;52.350;13.402;2022-11-15T08:39:02;36.97;;;24.27;;
31298;SDS011;17927;52.350;13.402;2022-11-15T08:41:29;34.22;;;23.25;;
31298;SDS011;17927;52.350;13.402;2022-11-15T08:43:56;32.67;;;23.70;;
31298;SDS011;17927;52.350;13.402;2022-11-15T08:46:22;36.85;;;24.67;;
31298;SDS011;17927;52.350;13.402;2022-11-15T08:48:47;36.47;;;24.42;;
31298;SDS011;17927;52.350;13.402;2022-11-15T08:51:12;36.40;;;23.75;;
31298;SDS011;17927;52.350;13.402;2022-11-15T08:53:38;33.00;;;24.23;;
31298;SDS011;17927;52.350;13.402;2022-11-15T08:56:06;33.78;;;23.67;;
31298;SDS011;17927;52.350;13.402;2022-11-15T08:58:32;30.65;;;23.13;;
31298;SDS011;17927;52.350;13.402;2022-11-15T09:00:58;35.28;;;24.13;;
31298;SDS011;17927;52.350;13.402;2022-11-15T09:03:23;33.67;;;23.77;;
31298;SDS011;17927;52.350;13.402;2022-11-15T09:05:48;33.15;;;23.95;;
31298;SDS011;17927;52.350;13.402;2022-11-15T09:08:13;32.88;;;23.80;;
31298;SDS011;17927;52.350;13.402;2022-11-15T09:10:39;32.15;;;22.45;;
31298;SDS011;17927;52.350;13.402;2022-11-15T09:13:04;32.33;;;23.13;;
31298;SDS011;17927;52.350;13.402;2022-11-15T09:15:29;30.60;;;21.80;;
31298;SDS011;17927;52.350;13.402;2022-11-15T09:17:57;32.92;;;21.80;;
31298;SDS011;17927;52.350;13.402;2022-11-15T09:20:23;33.30;;;23.00;;
31298;SDS011;17927;52.350;13.402;2022-11-15T09:22:48;32.53;;;22.80;;
31298;SDS011;17927;52.350;13.402;2022-11-15T09:25:14;31.25;;;21.73;;
31298;SDS011;17927;52.350;13.402;2022-11-15T09:27:39;30.52;;;22.33;;
31298;SDS011;17927;52.350;13.402;2022-11-15T09:30:04;32.08;;;22.65;;
31298;SDS011;17927;52.350;13.402;2022-11-15T09:32:30;32.08;;;22.35;;
31298;SDS011;17927;52.350;13.402;2022-11-15T09:34:55;29.33;;;21.05;;
31298;SDS011;17927;52.350;13.402;2022-11-15T09:37:21;24.70;;;19.15;;
31298;SDS011;17927;52.350;13.402;2022-11-15T09:39:46;29.23;;;21.90;;
31298;SDS011;17927;52.350;13.402;2022-11-15T09:42:20;28.42;;;21.23;;
31298;SDS011;17927;52.350;13.402;2022-11-15T09:47:52;25.27;;;18.73;;
31298;SDS011;17927;52.350;13.402;2022-11-15T09:50:28;24.83;;;18.10;;
31298;SDS011;17927;52.350;13.402;2022-11-15T09:52:58;23.75;;;18.20;;
31298;SDS011;17927;52.350;13.402;2022-11-15T09:55:36;24.40;;;16.83;;
31298;SDS011;17927;52.350;13.402;2022-11-15T09:58:14;21.05;;;15.40;;
31298;SDS011;17927;52.350;13.402;2022-11-15T10:00:51;21.77;;;16.17;;
31298;SDS011;17927;52.350;13.402;2022-11-15T10:03:29;21.95;;;16.20;;
31298;SDS011;17927;52.350;13.402;2022-11-15T10:06:00;19.33;;;16.23;;
31298;SDS011;17927;52.350;13.402;2022-11-15T10:11:18;21.17;;;15.88;;
31298;SDS011;17927;52.350;13.402;2022-11-15T10:13:48;19.23;;;15.18;;
31298;SDS011;17927;52.350;13.402;2022-11-15T10:16:37;20.08;;;14.35;;
31298;SDS011;17927;52.350;13.402;2022-11-15T10:19:22;20.33;;;13.88;;
31298;SDS011;17927;52.350;13.402;2022-11-15T10:24:47;21.83;;;15.23;;
31298;SDS011;17927;52.350;13.402;2022-11-15T10:27:16;19.40;;;14.05;;
31298;SDS011;17927;52.350;13.402;2022-11-15T10:29:47;28.83;;;15.97;;
31298;SDS011;17927;52.350;13.402;2022-11-15T10:32:14;18.38;;;14.45;;
31298;SDS011;17927;52.350;13.402;2022-11-15T10:34:42;17.10;;;13.25;;
31298;SDS011;17927;52.350;13.402;2022-11-15T10:37:07;18.65;;;13.32;;
31298;SDS011;17927;52.350;13.402;2022-11-15T10:39:32;22.75;;;14.32;;
31298;SDS011;17927;52.350;13.402;2022-11-15T10:42:17;15.35;;;13.45;;
31298;SDS011;17927;52.350;13.402;2022-11-15T10:44:53;17.23;;;13.07;;
31298;SDS011;17927;52.350;13.402;2022-11-15T10:47:22;16.50;;;13.13;;
31298;SDS011;17927;52.350;13.402;2022-11-15T10:50:01;15.85;;;13.18;;
31298;SDS011;17927;52.350;13.402;2022-11-15T10:52:49;15.18;;;12.63;;
31298;SDS011;17927;52.350;13.402;2022-11-15T10:57:40;14.70;;;11.67;;
31298;SDS011;17927;52.350;13.402;2022-11-15T11:02:45;17.85;;;12.20;;
31298;SDS011;17927;52.350;13.402;2022-11-15T11:07:58;15.63;;;11.80;;
31298;SDS011;17927;52.350;13.402;2022-11-15T11:10:31;14.90;;;12.52;;
31298;SDS011;17927;52.350;13.402;2022-11-15T11:13:14;15.93;;;11.57;;
31298;SDS011;17927;52.350;13.402;2022-11-15T11:15:46;14.52;;;11.77;;
31298;SDS011;17927;52.350;13.402;2022-11-15T11:18:19;13.70;;;10.88;;
31298;SDS011;17927;52.350;13.402;2022-11-15T11:21:03;12.18;;;10.02;;
31298;SDS011;17927;52.350;13.402;2022-11-15T11:26:15;12.48;;;9.32;;
31298;SDS011;17927;52.350;13.402;2022-11-15T11:31:53;11.05;;;8.63;;
31298;SDS011;17927;52.350;13.402;2022-11-15T11:37:19;8.88;;;8.02;;
31298;SDS011;17927;52.350;13.402;2022-11-15T11:43:19;10.05;;;8.45;;
31298;SDS011;17927;52.350;13.402;2022-11-15T11:46:16;10.02;;;8.93;;
31298;SDS011;17927;52.350;13.402;2022-11-15T11:49:12;13.32;;;8.88;;
31298;SDS011;17927;52.350;13.402;2022-11-15T11:51:45;9.27;;;8.10;;
31298;SDS011;17927;52.350;13.402;2022-11-15T11:54:28;11.88;;;7.75;;
31298;SDS011;17927;52.350;13.402;2022-11-15T11:57:02;8.95;;;8.10;;
31298;SDS011;17927;52.350;13.402;2022-11-15T12:02:24;14.75;;;9.55;;
31298;SDS011;17927;52.350;13.402;2022-11-15T12:04:58;8.85;;;7.93;;
31298;SDS011;17927;52.350;13.402;2022-11-15T12:07:33;8.82;;;7.53;;
31298;SDS011;17927;52.350;13.402;2022-11-15T12:13:10;7.88;;;7.15;;
31298;SDS011;17927;52.350;13.402;2022-11-15T12:18:17;6.60;;;6.00;;
31298;SDS011;17927;52.350;13.402;2022-11-15T12:20:49;6.82;;;6.13;;
31298;SDS011;17927;52.350;13.402;2022-11-15T12:23:26;8.07;;;6.38;;
31298;SDS011;17927;52.350;13.402;2022-11-15T12:26:03;9.32;;;6.90;;
31298;SDS011;17927;52.350;13.402;2022-11-15T12:28:40;7.53;;;6.13;;
31298;SDS011;17927;52.350;13.402;2022-11-15T12:31:15;8.48;;;6.68;;
31298;SDS011;17927;52.350;13.402;2022-11-15T12:34:00;6.65;;;6.00;;
31298;SDS011;17927;52.350;13.402;2022-11-15T12:36:30;6.55;;;5.93;;
31298;SDS011;17927;52.350;13.402;2022-11-15T12:39:16;6.53;;;5.93;;
31298;SDS011;17927;52.350;13.402;2022-11-15T12:41:43;6.55;;;5.97;;
31298;SDS011;17927;52.350;13.402;2022-11-15T12:46:58;8.02;;;6.22;;
31298;SDS011;17927;52.350;13.402;2022-11-15T13:02:24;6.82;;;6.22;;
31298;SDS011;17927;52.350;13.402;2022-11-15T13:04:51;6.50;;;5.90;;
31298;SDS011;17927;52.350;13.402;2022-11-15T13:13:01;10.45;;;8.07;;
31298;SDS011;17927;52.350;13.402;2022-11-15T13:15:45;8.80;;;8.00;;
31298;SDS011;17927;52.350;13.402;2022-11-15T13:21:05;9.90;;;8.82;;
31298;SDS011;17927;52.350;13.402;2022-11-15T13:24:02;9.95;;;8.00;;
31298;SDS011;17927;52.350;13.402;2022-11-15T13:26:27;9.43;;;8.50;;
31298;SDS011;17927;52.350;13.402;2022-11-15T13:28:53;9.98;;;8.20;;
31298;SDS011;17927;52.350;13.402;2022-11-15T13:31:30;8.80;;;7.82;;
31298;SDS011;17927;52.350;13.402;2022-11-15T13:34:03;8.90;;;8.00;;
31298;SDS011;17927;52.350;13.402;2022-11-15T13:36:49;9.85;;;8.25;;
31298;SDS011;17927;52.350;13.402;2022-11-15T13:39:25;10.68;;;8.45;;
31298;SDS011;17927;52.350;13.402;2022-11-15T13:41:52;9.50;;;8.60;;
31298;SDS011;17927;52.350;13.402;2022-11-15T13:44:28;14.18;;;8.50;;
31298;SDS011;17927;52.350;13.402;2022-11-15T13:47:00;9.68;;;8.65;;
31298;SDS011;17927;52.350;13.402;2022-11-15T13:49:30;11.93;;;8.65;;
31298;SDS011;17927;52.350;13.402;2022-11-15T13:51:57;10.07;;;9.05;;
31298;SDS011;17927;52.350;13.402;2022-11-15T13:57:02;13.05;;;9.52;;
31298;SDS011;17927;52.350;13.402;2022-11-15T13:59:31;12.30;;;10.13;;
31298;SDS011;17927;52.350;13.402;2022-11-15T14:02:03;11.95;;;10.00;;
31298;SDS011;17927;52.350;13.402;2022-11-15T14:04:36;12.02;;;9.88;;
31298;SDS011;17927;52.350;13.402;2022-11-15T14:07:16;11.95;;;9.32;;
31298;SDS011;17927;52.350;13.402;2022-11-15T14:09:44;13.57;;;10.50;;
31298;SDS011;17927;52.350;13.402;2022-11-15T14:15:19;12.75;;;10.80;;
31298;SDS011;17927;52.350;13.402;2022-11-15T14:17:52;16.58;;;11.35;;
31298;SDS011;17927;52.350;13.402;2022-11-15T14:22:55;14.52;;;10.50;;
31298;SDS011;17927;52.350;13.402;2022-11-15T14:25:25;20.38;;;11.05;;
31298;SDS011;17927;52.350;13.402;2022-11-15T14:28:14;15.07;;;11.20;;
31298;SDS011;17927;52.350;13.402;2022-11-15T14:30:49;11.75;;;10.45;;
31298;SDS011;17927;52.350;13.402;2022-11-15T14:33:21;14.38;;;10.50;;
31298;SDS011;17927;52.350;13.402;2022-11-15T14:35:49;13.43;;;9.95;;
31298;SDS011;17927;52.350;13.402;2022-11-15T14:38:16;12.00;;;9.88;;
31298;SDS011;17927;52.350;13.402;2022-11-15T14:40:42;14.07;;;11.00;;
31298;SDS011;17927;52.350;13.402;2022-11-15T14:43:08;10.70;;;9.60;;
31298;SDS011;17927;52.350;13.402;2022-11-15T14:45:36;11.23;;;10.13;;
31298;SDS011;17927;52.350;13.402;2022-11-15T14:48:01;12.63;;;10.32;;
31298;SDS011;17927;52.350;13.402;2022-11-15T14:50:26;16.08;;;10.32;;
31298;SDS011;17927;52.350;13.402;2022-11-15T14:52:52;11.27;;;10.07;;
31298;SDS011;17927;52.350;13.402;2022-11-15T14:55:25;10.85;;;9.55;;
31298;SDS011;17927;52.350;13.402;2022-11-15T14:58:01;14.63;;;9.90;;
31298;SDS011;17927;52.350;13.402;2022-11-15T15:00:28;14.30;;;10.75;;
31298;SDS011;17927;52.350;13.402;2022-11-15T15:02:57;13.15;;;10.65;;
31298;SDS011;17927;52.350;13.402;2022-11-15T15:05:27;11.15;;;9.43;;
31298;SDS011;17927;52.350;13.402;2022-11-15T15:08:02;15.60;;;10.18;;
31298;SDS011;17927;52.350;13.402;2022-11-15T15:10:32;11.73;;;10.43;;
31298;SDS011;17927;52.350;13.402;2022-11-15T15:13:00;13.43;;;12.05;;
31298;SDS011;17927;52.350;13.402;2022-11-15T15:15:31;16.98;;;12.20;;
31298;SDS011;17927;52.350;13.402;2022-11-15T15:17:58;16.67;;;12.65;;
31298;SDS011;17927;52.350;13.402;2022-11-15T15:20:23;12.77;;;11.48;;
31298;SDS011;17927;52.350;13.402;2022-11-15T15:22:48;15.75;;;12.23;;
31298;SDS011;17927;52.350;13.402;2022-11-15T15:25:18;18.42;;;12.23;;
31298;SDS011;17927;52.350;13.402;2022-11-15T15:27:51;17.63;;;13.80;;
31298;SDS011;17927;52.350;13.402;2022-11-15T15:30:16;17.35;;;14.13;;
31298;SDS011;17927;52.350;13.402;2022-11-15T15:32:42;14.43;;;11.45;;
31298;SDS011;17927;52.350;13.402;2022-11-15T15:35:07;11.55;;;10.38;;
31298;SDS011;17927;52.350;13.402;2022-11-15T15:37:35;12.30;;;9.40;;
31298;SDS011;17927;52.350;13.402;2022-11-15T15:40:01;13.40;;;9.68;;
31298;SDS011;17927;52.350;13.402;2022-11-15T15:42:26;11.55;;;10.35;;
31298;SDS011;17927;52.350;13.402;2022-11-15T15:44:51;16.55;;;13.10;;
31298;SDS011;17927;52.350;13.402;2022-11-15T15:47:18;19.48;;;12.82;;
31298;SDS011;17927;52.350;13.402;2022-11-15T15:49:47;15.57;;;11.98;;
31298;SDS011;17927;52.350;13.402;2022-11-15T15:52:14;15.27;;;11.70;;
31298;SDS011;17927;52.350;13.402;2022-11-15T15:54:39;17.08;;;12.68;;